Plumville, PA

8:38 AM EST on January 25, 2015 (GMT -0500)
Rural Valley | Change Station
CLOSE
Current Station
Personal Weather Station
Location: Rural Valley, PA
Elevation: 1133 ft
Nearby Weather Stations
Active Advisory: Winter Weather Advisory

Elev 1133 ft 40.76 °N, 79.32 °W | Updated 1 second ago

Overcast
Overcast
33.4 °F
Feels Like 33 °F
N
2.2
Wind Variable Wind from South
Gusts 3.8 mph

Today
High -- | Low -- °F
--% Chance of Precip.
Yesterday
High -- | Low -- °F
Precip. -- in
7:33 AM 5:25 PM
Waxing Crescent, 32% visible
Pressure 29.78 in
Visibility 1.5 miles
Clouds Overcast 500 ft
Windchill 33 °F
Dew Point 33 °F
Humidity 99%
Rainfall 0.00 in
Snow Depth Not available.
UV 0 out of 12
Pollen .10 out of 12
Air Quality Not available.
Flu Activity Not available.
METAR KIDI 251335Z AUTO 27005KT 1 1/2SM BR OVC005 01/00 A2978 RMK A01

More Conditions Fewer Conditions

Pressure 29.78 in
Visibility 1.5 miles
Clouds Overcast 500 ft
Windchill 33 °F
Dew Point 33 °F
Humidity 99%
Rainfall 0.00 in
Snow Depth Not available.
UV 0 out of 12
Pollen .10 out of 12
Air Quality Not available.
Flu Activity Not available.
METAR KIDI 251335Z AUTO 27005KT 1 1/2SM BR OVC005 01/00 A2978 RMK A01

More Conditions Fewer Conditions

10-Day Weather Forecast

Almanac

Astronomy

Jan. 25, 2015 Rise Set
Actual Time
Civil Twilight
Nautical Twilight
Astronomical Twilight
Moon
Length of Visible Light
Length of Day
Tomorrow will be .
, % of the Moon is Illuminated

Today's Extremes

State Highs State Lows

Community

WunderPhotos

Upload Photos

1,789,883 photos uploaded!

WunderBlogs® & News

Nearby

Air Quality

  Air Quality AQ Index Pollutant
Not available.

Snow Depth

Station Depth Elevation

Earthquake Activity

City Distance Mag. Time & Date
Minimum magnitude displayed is 2.5.

Coastal Water Temperatures

Place Temperature

Nearby Weather Stations